Time;durP1;ratioP1;P1;durP2;ratioP2;P2;SDS_P1;SDS_P2;PMS_P1;PMS_P2;Temp;Humidity;BMP_temperature;BMP_pressure;BME280_temperature;BME280_humidity;BME280_pressure;Samples;Min_cycle;Max_cycle;Signal;HPM_P1;HPM_P2
2021/11/16 00:01:00;;;;;;;45.40;31.50;;;;;;;7.37;79.83;100699.47;5018633;28;20582;-63
2021/11/16 00:03:31;;;;;;;41.83;29.45;;;;;;;7.37;80.07;100696.00;5036323;28;20481;-62
2021/11/16 00:06:05;;;;;;;42.22;29.45;;;;;;;7.35;79.66;100693.34;5018404;28;20124;-63
2021/11/16 00:08:36;;;;;;;44.28;29.10;;;;;;;7.35;79.72;100693.34;5018770;28;20127;-62
2021/11/16 00:11:08;;;;;;;43.80;28.52;;;;;;;7.37;79.97;100704.63;5035036;28;20087;-63
2021/11/16 00:13:42;;;;;;;39.92;28.63;;;;;;;7.37;79.52;100702.03;5035822;28;20053;-64
2021/11/16 00:16:13;;;;;;;41.42;27.83;;;;;;;7.35;80.03;100693.34;5035122;28;20083;-62
2021/11/16 00:18:44;;;;;;;44.40;29.20;;;;;;;7.35;79.84;100695.94;5018699;28;20045;-62
2021/11/16 00:21:19;;;;;;;42.75;29.67;;;;;;;7.35;79.86;100684.75;5034919;28;20060;-63
2021/11/16 00:23:54;;;;;;;40.22;29.52;;;;;;;7.35;79.92;100687.34;5034654;28;20481;-63
2021/11/16 00:26:25;;;;;;;37.90;27.67;;;;;;;7.33;79.44;100684.69;5034837;28;20041;-63
2021/11/16 00:28:59;;;;;;;43.50;28.92;;;;;;;7.33;79.74;100692.41;5018427;28;20060;-63
2021/11/16 00:31:31;;;;;;;37.85;27.13;;;;;;;7.32;79.87;100688.06;5018179;28;20509;-63
2021/11/16 00:34:03;;;;;;;37.97;27.95;;;;;;;7.32;79.69;100683.81;5034538;28;20057;-63
2021/11/16 00:36:37;;;;;;;39.58;27.95;;;;;;;7.32;79.44;100676.06;5017513;28;20044;-62
2021/11/16 00:39:10;;;;;;;41.83;27.80;;;;;;;7.32;79.84;100675.19;5034693;28;20064;-62
2021/11/16 00:41:43;;;;;;;38.65;28.73;;;;;;;7.31;79.59;100671.72;5034640;28;20040;-62
2021/11/16 00:44:14;;;;;;;37.72;26.20;;;;;;;7.32;79.75;100670.03;5017747;28;20044;-62
2021/11/16 00:46:45;;;;;;;40.05;27.75;;;;;;;7.32;79.49;100667.44;5017885;28;20449;-63
2021/11/16 00:49:11;;;;;;;39.50;27.83;;;;;;;7.31;79.71;100666.56;5017505;28;20492;-63
2021/11/16 00:51:41;;;;;;;37.97;27.42;;;;;;;7.31;79.89;100670.88;5035437;28;20026;-63
2021/11/16 00:54:10;;;;;;;39.85;26.80;;;;;;;7.31;79.81;100676.88;5035677;28;20044;-63
2021/11/16 00:56:43;;;;;;;39.63;28.20;;;;;;;7.31;79.72;100668.28;5017806;28;20030;-63
2021/11/16 00:59:16;;;;;;;36.92;27.50;;;;;;;7.32;79.89;100670.91;5034210;28;20056;-63
2021/11/16 01:01:42;;;;;;;41.33;27.92;;;;;;;7.31;79.94;100670.88;5035507;28;20507;-62
2021/11/16 01:04:17;;;;;;;42.22;28.40;;;;;;;7.30;79.64;100669.97;5033859;28;20025;-62
2021/11/16 01:09:15;;;;;;;41.40;29.13;;;;;;;7.30;80.00;100675.13;5111499;27;20346;-63
2021/11/16 01:11:48;;;;;;;39.55;28.00;;;;;;;7.31;79.93;100676.88;5093060;28;20375;-63
2021/11/16 01:14:22;;;;;;;42.72;29.10;;;;;;;7.32;79.89;100675.19;5110182;28;20126;-62
2021/11/16 01:16:53;;;;;;;41.28;27.95;;;;;;;7.31;79.77;100676.88;5076206;28;20065;-62
2021/11/16 01:19:21;;;;;;;41.60;28.73;;;;;;;7.31;79.84;100679.47;5076440;28;20040;-61
2021/11/16 01:21:49;;;;;;;38.85;28.40;;;;;;;7.32;79.72;100680.34;5127115;28;20093;-62
2021/11/16 01:24:16;;;;;;;40.78;27.77;;;;;;;7.31;79.90;100676.88;5109723;28;20415;-63
2021/11/16 01:26:49;;;;;;;46.53;29.65;;;;;;;7.31;79.87;100673.44;5109913;28;20471;-62
2021/11/16 01:29:24;;;;;;;39.35;27.55;;;;;;;7.31;79.85;100657.97;5111095;28;20032;-63
2021/11/16 01:31:58;;;;;;;43.88;29.17;;;;;;;7.30;79.50;100663.94;5111406;28;20067;-63
2021/11/16 01:34:33;;;;;;;42.83;28.92;;;;;;;7.30;79.62;100658.78;5111312;28;20119;-63
2021/11/16 01:37:09;;;;;;;43.85;29.65;;;;;;;7.31;80.01;100663.13;5110846;28;20034;-62
2021/11/16 01:39:40;;;;;;;42.60;30.85;;;;;;;7.29;79.78;100665.63;5110497;28;20032;-62
2021/11/16 01:42:12;;;;;;;42.80;30.52;;;;;;;7.29;79.84;100663.06;5109703;28;20054;-62
2021/11/16 01:44:43;;;;;;;39.97;27.60;;;;;;;7.29;79.86;100664.78;5109429;28;20032;-63
2021/11/16 01:47:14;;;;;;;42.25;28.90;;;;;;;7.29;79.85;100654.47;5092909;28;20036;-63
2021/11/16 01:49:48;;;;;;;36.67;26.42;;;;;;;7.29;79.88;100657.91;5092904;28;20118;-63
2021/11/16 01:52:22;;;;;;;32.58;23.50;;;;;;;7.29;79.76;100662.19;5093487;28;20479;-62
2021/11/16 01:54:58;;;;;;;33.53;24.55;;;;;;;7.28;79.47;100661.28;5092896;28;20032;-62
2021/11/16 01:57:28;;;;;;;33.75;24.00;;;;;;;7.28;79.64;100648.41;5110636;28;20028;-62
2021/11/16 01:59:54;;;;;;;33.45;22.88;;;;;;;7.29;79.40;100649.31;5126389;28;20039;-63
2021/11/16 02:02:25;;;;;;;30.05;21.58;;;;;;;7.25;79.46;100648.28;5092866;28;20529;-62
2021/11/16 02:04:59;;;;;;;;;;;;;;;7.24;79.82;100643.94;5110835;28;20040;-63
2021/11/16 02:07:25;;;;;;;32.53;22.00;;;;;;;7.24;79.73;100643.06;5074808;28;19965;-63
2021/11/16 02:09:56;;;;;;;33.80;23.45;;;;;;;7.23;79.77;100641.31;5110255;28;20039;-63
2021/11/16 02:12:35;;;;;;;34.83;25.30;;;;;;;7.21;79.54;100646.41;5110175;28;20050;-63
2021/11/16 02:15:08;;;;;;;33.17;22.95;;;;;;;7.21;79.82;100637.78;5110404;28;20035;-62
2021/11/16 02:17:44;;;;;;;28.70;22.15;;;;;;;7.21;79.90;100633.53;5092176;28;20119;-63
2021/11/16 02:20:16;;;;;;;31.23;24.20;;;;;;;7.21;79.77;100633.53;5098566;28;20039;-63
2021/11/16 02:22:48;;;;;;;32.00;23.05;;;;;;;7.21;79.69;100630.94;5096484;28;20040;-63
2021/11/16 02:25:19;;;;;;;36.55;23.73;;;;;;;7.21;79.74;100633.53;5078432;28;20028;-62
2021/11/16 02:27:50;;;;;;;31.05;21.88;;;;;;;7.22;79.52;100634.41;5095514;28;20089;-62
2021/11/16 02:30:24;;;;;;;29.65;21.52;;;;;;;7.21;79.60;100623.22;5096522;28;20032;-63
2021/11/16 02:32:55;;;;;;;;;;;;;;;7.19;79.42;100627.44;5062044;28;20081;-62
2021/11/16 02:35:26;;;;;;;30.58;23.92;;;;;;;7.19;79.60;100627.44;5061682;28;19916;-63
2021/11/16 02:37:58;;;;;;;29.95;23.05;;;;;;;7.19;79.52;100627.44;5078126;28;20085;-62
2021/11/16 02:40:30;;;;;;;29.40;22.25;;;;;;;7.20;79.65;100630.88;5061214;28;20052;-63
2021/11/16 02:43:04;;;;;;;32.10;23.30;;;;;;;7.20;79.37;100625.72;5094958;28;20499;-63
2021/11/16 02:45:38;;;;;;;29.20;22.40;;;;;;;7.20;79.36;100620.56;5096108;28;20490;-62
2021/11/16 02:48:14;;;;;;;28.55;21.45;;;;;;;7.19;79.46;100616.22;5094597;28;20376;-63
2021/11/16 02:50:50;;;;;;;32.47;23.00;;;;;;;7.18;79.43;100617.94;5096247;28;20173;-63
2021/11/16 02:53:19;;;;;;;29.73;22.40;;;;;;;7.19;79.43;100627.44;5096075;28;20028;-63
2021/11/16 02:55:44;;;;;;;32.25;22.60;;;;;;;7.19;79.57;100624.84;5060949;28;20505;-62
2021/11/16 02:58:20;;;;;;;33.20;23.77;;;;;;;7.20;79.66;100633.44;5095667;28;20498;-63
2021/11/16 03:00:55;;;;;;;30.85;22.48;;;;;;;7.19;79.73;100623.94;5094563;28;20038;-63
2021/11/16 03:03:26;;;;;;;31.42;23.80;;;;;;;7.18;79.63;100623.09;5061299;28;20046;-63
2021/11/16 03:06:03;;;;;;;32.95;23.92;;;;;;;7.18;79.34;100623.09;5061154;28;20039;-63
2021/11/16 03:08:35;;;;;;;31.13;22.55;;;;;;;7.17;79.67;100623.91;5073737;28;20087;-63
2021/11/16 03:11:12;;;;;;;29.88;21.30;;;;;;;7.18;79.25;100628.25;5074099;28;20036;-63
2021/11/16 03:13:43;;;;;;;29.25;22.15;;;;;;;7.18;79.65;100623.09;5075323;28;20086;-62
2021/11/16 03:16:18;;;;;;;30.48;23.23;;;;;;;7.19;79.37;100619.69;5074115;28;20044;-63
2021/11/16 03:18:52;;;;;;;28.10;21.50;;;;;;;7.18;79.64;100620.50;5057353;28;20494;-63
2021/11/16 03:21:24;;;;;;;27.88;20.98;;;;;;;7.15;79.92;100618.69;5073917;28;20503;-63
2021/11/16 03:23:58;;;;;;;25.90;19.75;;;;;;;7.15;79.62;100615.22;5075326;28;20028;-63
2021/11/16 03:26:29;;;;;;;26.65;17.42;;;;;;;7.15;79.45;100623.84;5073980;28;20056;-63
2021/11/16 03:29:00;;;;;;;24.83;18.08;;;;;;;7.15;79.27;100612.66;5057324;28;20032;-62
2021/11/16 03:31:41;;;;;;;22.08;17.05;;;;;;;7.16;79.60;100614.41;5056376;28;20380;-62
2021/11/16 03:34:12;;;;;;;21.90;15.93;;;;;;;7.16;79.54;100612.69;5057130;28;20032;-63
2021/11/16 03:36:46;;;;;;;22.53;16.80;;;;;;;7.15;79.35;100615.22;5074108;28;20032;-63
2021/11/16 03:39:17;;;;;;;23.33;16.33;;;;;;;7.14;79.48;100610.88;5073728;28;20076;-62
2021/11/16 03:41:48;;;;;;;23.50;16.77;;;;;;;7.14;79.65;100616.94;5107530;28;20060;-63
2021/11/16 03:44:21;;;;;;;24.42;18.60;;;;;;;7.14;79.62;100609.22;5073503;28;20048;-63
2021/11/16 03:46:52;;;;;;;24.95;18.52;;;;;;;7.14;79.39;100614.38;5073060;28;20127;-63
2021/11/16 03:49:25;;;;;;;24.80;17.38;;;;;;;7.13;79.08;100607.44;5073706;28;20127;-63
2021/11/16 03:52:05;;;;;;;26.63;18.13;;;;;;;7.14;79.40;100610.88;5073292;28;20093;-63
2021/11/16 03:54:43;;;;;;;26.45;19.27;;;;;;;7.13;79.41;100601.41;5057635;28;20453;-63
2021/11/16 03:57:35;;;;;;;26.15;18.15;;;;;;;7.11;79.73;100601.34;5073989;28;20441;-63
2021/11/16 04:00:43;;;;;;;29.15;20.17;;;;;;;7.11;79.14;100603.94;5073079;28;20052;-63
2021/11/16 04:03:37;;;;;;;29.23;21.27;;;;;;;7.11;79.49;100611.66;5072775;28;20040;-62
2021/11/16 04:06:28;;;;;;;24.40;17.98;;;;;;;7.10;79.17;100612.47;5059146;28;20495;-63
2021/11/16 04:09:20;;;;;;;25.38;18.00;;;;;;;7.11;79.34;100610.75;5072999;28;20043;-63
2021/11/16 04:12:08;;;;;;;22.90;17.83;;;;;;;7.10;79.29;100609.00;5072707;28;20519;-63
2021/11/16 04:15:01;;;;;;;24.20;18.38;;;;;;;7.09;79.39;100602.97;5072746;28;20079;-63
2021/11/16 04:17:40;;;;;;;22.25;15.63;;;;;;;7.09;79.45;100605.56;5072921;28;20028;-63
2021/11/16 04:20:17;;;;;;;21.55;15.50;;;;;;;7.09;79.55;100610.72;5073270;28;20047;-63
2021/11/16 04:22:55;;;;;;;20.52;13.63;;;;;;;7.10;79.26;100612.47;5074434;28;20068;-63
2021/11/16 04:25:29;;;;;;;17.58;13.90;;;;;;;7.10;79.28;100616.75;5056225;28;20403;-63
2021/11/16 04:28:02;;;;;;;17.77;14.32;;;;;;;7.09;79.24;100618.44;5055920;28;20037;-63
2021/11/16 04:30:38;;;;;;;18.92;14.35;;;;;;;7.10;79.24;100612.47;5074055;28;20048;-63
2021/11/16 04:33:13;;;;;;;18.02;13.85;;;;;;;7.10;79.43;100609.00;5056346;28;20032;-63
2021/11/16 04:35:44;;;;;;;16.77;12.82;;;;;;;7.09;79.27;100612.41;5073906;28;20106;-63
2021/11/16 04:38:19;;;;;;;16.88;13.20;;;;;;;7.10;79.27;100609.00;5073620;28;20039;-63
2021/11/16 04:40:53;;;;;;;18.00;13.52;;;;;;;7.09;79.13;100607.25;5073623;28;20043;-63
2021/11/16 04:43:28;;;;;;;18.75;12.95;;;;;;;7.08;79.40;100608.97;5072823;28;20154;-63
2021/11/16 04:46:05;;;;;;;17.45;13.23;;;;;;;7.09;79.05;100612.41;5055547;28;20050;-62
2021/11/16 04:48:51;;;;;;;17.38;13.48;;;;;;;7.08;79.43;100614.13;5072080;28;20139;-63
2021/11/16 04:59:42;;;;;;;17.50;13.48;;;;;;;7.06;79.35;100620.03;5072275;28;20029;-63
2021/11/16 05:05:08;;;;;;;17.05;14.07;;;;;;;7.03;79.31;100615.63;5073338;28;20594;-63
2021/11/16 05:07:42;;;;;;;15.23;11.68;;;;;;;7.05;79.27;100616.56;5071803;28;20079;-62
2021/11/16 05:10:14;;;;;;;15.23;11.65;;;;;;;7.04;79.02;100619.97;5073332;28;20041;-62
2021/11/16 05:12:45;;;;;;;16.67;12.35;;;;;;;7.04;79.20;100616.50;5055299;28;20048;-62
2021/11/16 05:15:18;;;;;;;13.13;9.88;;;;;;;7.04;79.29;100619.09;5055685;28;20122;-62
2021/11/16 05:17:55;;;;;;;16.40;12.97;;;;;;;7.05;79.06;100620.84;5073630;28;20045;-64
2021/11/16 05:20:28;;;;;;;14.63;11.52;;;;;;;7.05;79.17;100614.00;5055344;28;20385;-62
2021/11/16 05:23:02;;;;;;;15.35;11.80;;;;;;;7.05;79.00;100618.28;5072392;28;20036;-63
2021/11/16 05:25:36;;;;;;;14.90;11.70;;;;;;;7.04;79.25;100613.94;5072452;28;20036;-62
2021/11/16 05:28:10;;;;;;;16.42;12.25;;;;;;;7.04;79.16;100619.09;5073395;28;20054;-63
2021/11/16 05:30:46;;;;;;;15.82;11.65;;;;;;;7.03;79.04;100622.50;5072346;28;20495;-63
2021/11/16 05:33:18;;;;;;;15.43;12.60;;;;;;;7.03;78.87;100617.34;5055149;28;20045;-63
2021/11/16 05:35:49;;;;;;;16.48;11.82;;;;;;;7.03;79.03;100614.75;5073520;28;20037;-63
2021/11/16 05:38:33;;;;;;;15.68;12.25;;;;;;;7.02;78.81;100619.00;5055020;28;20043;-63
2021/11/16 05:41:06;;;;;;;14.63;11.18;;;;;;;7.01;79.29;100610.41;5071981;28;20134;-63
2021/11/16 05:43:37;;;;;;;14.57;12.10;;;;;;;7.03;79.22;100622.50;5054964;28;20389;-63
2021/11/16 05:46:05;;;;;;;14.82;11.52;;;;;;;7.03;79.33;100620.78;5055095;28;20480;-63
2021/11/16 05:48:44;;;;;;;15.32;11.93;;;;;;;7.01;79.12;100623.31;5072748;28;20040;-63
2021/11/16 05:51:16;;;;;;;17.48;12.20;;;;;;;7.01;79.23;100619.81;5055179;28;20182;-62
2021/11/16 05:53:52;;;;;;;16.88;12.85;;;;;;;7.02;79.25;100626.75;5073175;28;20041;-63
2021/11/16 05:56:25;;;;;;;15.80;12.70;;;;;;;7.03;78.66;100632.78;5075509;28;20128;-63
2021/11/16 05:59:00;;;;;;;15.65;12.60;;;;;;;7.03;79.17;100628.50;5076717;28;20044;-63
2021/11/16 06:01:30;;;;;;;16.77;11.65;;;;;;;7.02;79.16;100634.47;5075594;28;20051;-63
2021/11/16 06:04:06;;;;;;;16.35;12.88;;;;;;;7.03;79.21;100631.09;5075536;28;20041;-64
2021/11/16 06:06:32;;;;;;;17.58;12.20;;;;;;;7.02;78.87;100634.47;5058835;28;20098;-63
2021/11/16 06:09:06;;;;;;;16.67;12.45;;;;;;;7.01;79.21;100628.47;5089939;28;20045;-63
2021/11/16 06:11:38;;;;;;;17.77;12.82;;;;;;;7.01;78.92;100625.88;5055314;28;20119;-63
2021/11/16 06:14:11;;;;;;;15.80;11.77;;;;;;;7.01;79.30;100628.47;5038911;28;20079;-63
2021/11/16 06:16:45;;;;;;;15.77;12.10;;;;;;;7.00;78.97;100624.13;5055563;28;20033;-62
2021/11/16 06:19:18;;;;;;;13.85;11.65;;;;;;;7.00;78.92;100634.44;5038482;28;20033;-62
2021/11/16 06:21:45;;;;;;;15.05;11.98;;;;;;;7.00;78.88;100641.28;5055728;28;20041;-63
2021/11/16 06:24:13;;;;;;;17.48;12.95;;;;;;;6.98;79.16;100638.63;5038403;28;20098;-63
2021/11/16 06:26:49;;;;;;;16.15;12.45;;;;;;;6.99;79.08;100645.56;5056155;28;20544;-63
2021/11/16 06:29:20;;;;;;;17.70;13.98;;;;;;;6.98;79.16;100636.06;5038191;28;20400;-62
2021/11/16 06:31:49;;;;;;;18.90;13.70;;;;;;;6.98;78.89;100643.78;5038984;28;20037;-62
2021/11/16 06:34:17;;;;;;;17.67;13.48;;;;;;;6.96;79.12;100642.84;5056690;28;20037;-63
2021/11/16 06:36:54;;;;;;;18.92;14.65;;;;;;;6.97;78.91;100636.00;5054949;28;20052;-62
2021/11/16 06:39:24;;;;;;;19.95;14.93;;;;;;;6.97;78.86;100644.59;5056095;28;20123;-62
2021/11/16 06:42:01;;;;;;;16.38;12.98;;;;;;;6.96;78.81;100640.28;5055030;28;20045;-63
2021/11/16 06:44:48;;;;;;;16.48;12.23;;;;;;;6.96;79.01;100648.00;5038851;28;20037;-62
2021/11/16 06:47:25;;;;;;;19.10;13.98;;;;;;;6.97;78.89;100644.59;5037622;28;20090;-62
2021/11/16 06:49:59;;;;;;;18.75;13.88;;;;;;;6.97;78.88;100646.31;5054672;28;20037;-62
2021/11/16 06:52:37;;;;;;;18.50;14.40;;;;;;;6.97;78.68;100649.75;5055712;28;20127;-63
2021/11/16 06:55:17;;;;;;;19.88;14.23;;;;;;;6.95;78.63;100653.97;5054211;28;20132;-63
2021/11/16 06:57:59;;;;;;;22.25;16.08;;;;;;;6.95;78.90;100648.81;5054798;28;20037;-63
2021/11/16 07:00:32;;;;;;;21.88;16.08;;;;;;;6.96;78.69;100649.72;5054391;28;20120;-63
2021/11/16 07:03:08;;;;;;;22.03;16.50;;;;;;;6.96;79.19;100648.00;5037658;28;20046;-63
2021/11/16 07:05:49;;;;;;;20.67;15.75;;;;;;;6.96;78.98;100653.16;5055594;28;20300;-62
2021/11/16 07:08:42;;;;;;;22.25;16.30;;;;;;;6.95;79.05;100646.25;5082009;28;20048;-62
2021/11/16 07:11:23;;;;;;;26.10;18.83;;;;;;;6.95;79.13;100642.81;5077514;28;20066;-62
2021/11/16 07:14:13;;;;;;;26.55;18.77;;;;;;;6.94;78.83;100641.03;5112193;28;20068;-63
2021/11/16 07:17:00;;;;;;;25.13;17.95;;;;;;;6.95;79.04;100650.53;5060489;28;20028;-62
2021/11/16 07:19:39;;;;;;;26.80;17.92;;;;;;;6.94;78.97;100653.91;5095440;28;20396;-62
2021/11/16 07:22:28;;;;;;;25.63;17.20;;;;;;;6.93;78.70;100657.31;5111493;28;20032;-65
2021/11/16 07:25:08;;;;;;;23.45;17.15;;;;;;;6.94;79.08;100653.91;5095623;28;20036;-62
2021/11/16 07:27:40;;;;;;;23.73;17.65;;;;;;;6.93;78.54;100647.00;5095221;28;20612;-63
2021/11/16 07:30:19;;;;;;;24.90;18.95;;;;;;;6.92;78.81;100647.81;5077301;28;20036;-63
2021/11/16 07:33:00;;;;;;;22.38;17.63;;;;;;;6.92;78.65;100646.16;5077543;28;20598;-63
2021/11/16 07:35:44;;;;;;;22.00;16.92;;;;;;;6.91;78.65;100649.53;5061318;28;20044;-63
2021/11/16 07:38:23;;;;;;;27.90;17.05;;;;;;;6.91;78.75;100652.13;5077802;28;20122;-63
2021/11/16 07:41:00;;;;;;;22.15;16.58;;;;;;;6.89;78.81;100653.75;5095511;28;20047;-63
2021/11/16 07:43:37;;;;;;;22.05;15.70;;;;;;;6.90;79.14;100655.50;5060726;28;20404;-62
2021/11/16 07:46:08;;;;;;;20.45;15.60;;;;;;;6.91;79.13;100659.84;5077160;28;20047;-63
2021/11/16 07:48:48;;;;;;;20.63;15.85;;;;;;;6.90;78.86;100650.34;5077283;28;20036;-63
2021/11/16 07:51:23;;;;;;;22.27;15.98;;;;;;;6.91;79.02;100659.84;5093507;28;20439;-63
2021/11/16 07:53:56;;;;;;;22.80;16.10;;;;;;;6.90;79.00;100652.03;5059820;28;20081;-62
2021/11/16 07:56:33;;;;;;;20.80;15.52;;;;;;;6.90;78.74;100658.09;5060025;28;20071;-62
2021/11/16 07:59:05;;;;;;;21.08;15.88;;;;;;;6.91;79.03;100654.69;5059823;28;20044;-63
2021/11/16 08:04:43;;;;;;;23.05;16.50;;;;;;;6.91;79.09;100649.53;5094601;28;20043;-63
2021/11/16 08:09:59;;;;;;;24.05;16.70;;;;;;;6.89;78.84;100646.00;5076290;28;20036;-63
2021/11/16 08:12:38;;;;;;;23.20;17.63;;;;;;;6.90;79.03;100644.31;5092882;28;20509;-62
2021/11/16 08:15:11;;;;;;;22.70;17.23;;;;;;;6.92;78.83;100650.41;5059882;28;20040;-63
2021/11/16 08:17:51;;;;;;;22.13;17.30;;;;;;;6.91;79.13;100649.53;5076035;28;20093;-62
2021/11/16 08:20:28;;;;;;;23.10;16.40;;;;;;;6.92;78.76;100652.97;5076204;28;20046;-62
2021/11/16 08:23:08;;;;;;;25.65;17.58;;;;;;;6.90;78.75;100646.88;5060401;28;20036;-63
2021/11/16 08:25:39;;;;;;;22.27;16.55;;;;;;;6.91;78.94;100652.13;5059737;28;20044;-63
2021/11/16 08:28:14;;;;;;;23.50;17.15;;;;;;;6.92;78.90;100652.97;5059625;28;20040;-63
2021/11/16 08:30:46;;;;;;;24.98;17.48;;;;;;;6.92;79.00;100642.66;5058981;28;20097;-63
2021/11/16 08:33:17;;;;;;;25.27;18.60;;;;;;;6.92;79.02;100641.00;5059984;28;20070;-63
2021/11/16 08:35:48;;;;;;;25.27;18.15;;;;;;;6.92;78.94;100641.00;5059572;28;20032;-63
2021/11/16 08:38:30;;;;;;;24.23;18.65;;;;;;;6.93;78.88;100637.56;5059344;28;20077;-63
2021/11/16 08:41:07;;;;;;;24.90;18.15;;;;;;;6.93;79.20;100639.28;5092765;28;20498;-63
2021/11/16 08:43:39;;;;;;;24.08;17.52;;;;;;;6.93;78.69;100640.13;5059447;28;20043;-64
2021/11/16 08:46:16;;;;;;;26.27;18.58;;;;;;;6.94;78.99;100639.31;5058909;28;20040;-63
2021/11/16 08:48:53;;;;;;;24.45;17.17;;;;;;;6.95;78.84;100633.34;5093905;28;20036;-63
2021/11/16 08:51:44;;;;;;;23.15;17.08;;;;;;;6.94;78.89;100630.72;5092730;28;20043;-63
2021/11/16 08:54:11;;;;;;;25.73;17.55;;;;;;;6.93;78.64;100637.56;5058365;28;20072;-62
2021/11/16 08:56:45;;;;;;;21.40;15.38;;;;;;;6.94;79.13;100630.72;5059097;28;20084;-62
2021/11/16 08:59:20;;;;;;;23.23;16.25;;;;;;;6.94;78.90;100633.31;5059236;28;20081;-62
2021/11/16 09:02:06;;;;;;;;;;;;;;;6.92;78.76;100630.69;5059413;28;20047;-63
2021/11/16 09:04:47;;;;;;;22.90;16.42;;;;;;;6.92;79.09;100630.69;5059266;28;19915;-63
2021/11/16 09:07:30;;;;;;;24.73;17.80;;;;;;;6.92;79.11;100620.38;5058934;28;20051;-63
2021/11/16 09:10:18;;;;;;;23.42;16.45;;;;;;;6.94;78.72;100630.72;5058946;28;20506;-62
2021/11/16 09:13:05;;;;;;;24.30;17.83;;;;;;;6.93;79.08;100629.84;5109198;28;20056;-62
2021/11/16 09:15:55;;;;;;;26.98;20.58;;;;;;;6.94;78.97;100633.31;5058594;28;20071;-64
2021/11/16 09:18:36;;;;;;;26.38;17.27;;;;;;;6.94;79.13;100623.00;5092155;28;20040;-62
2021/11/16 09:21:41;;;;;;;25.30;18.77;;;;;;;6.95;78.88;100622.19;5058681;28;20063;-62
2021/11/16 09:24:22;;;;;;;25.85;17.67;;;;;;;6.94;79.05;100621.28;5075693;28;20032;-62
2021/11/16 09:29:52;;;;;;;24.88;16.83;;;;;;;6.95;78.79;100623.03;5095784;28;20036;-62
2021/11/16 09:32:32;;;;;;;24.60;17.05;;;;;;;6.96;79.21;100623.94;5096750;28;20028;-63
2021/11/16 09:35:15;;;;;;;29.08;18.38;;;;;;;6.95;78.96;100623.03;5080180;28;20078;-63
2021/11/16 09:37:53;;;;;;;24.02;17.48;;;;;;;6.96;79.03;100619.66;5062584;28;20036;-63
2021/11/16 09:40:26;;;;;;;24.20;17.63;;;;;;;6.97;78.76;100617.97;5078995;28;20039;-63
2021/11/16 09:43:05;;;;;;;23.80;17.42;;;;;;;6.96;79.10;100617.06;5062828;28;20237;-63
2021/11/16 09:45:50;;;;;;;25.23;18.17;;;;;;;6.96;78.89;100614.50;5096326;28;20043;-63
2021/11/16 09:48:27;;;;;;;25.23;16.85;;;;;;;6.97;78.76;100610.25;5097239;28;20165;-63
2021/11/16 09:50:56;;;;;;;23.35;16.00;;;;;;;6.96;78.91;100609.34;5096242;28;20474;-64
2021/11/16 09:53:38;;;;;;;24.10;15.90;;;;;;;6.98;79.21;100606.84;5079523;28;20067;-63
2021/11/16 09:56:29;;;;;;;23.67;16.55;;;;;;;6.98;79.17;100599.13;5097144;28;20063;-63
2021/11/16 09:59:12;;;;;;;24.52;17.52;;;;;;;6.97;78.82;100599.94;5061906;28;20040;-62
2021/11/16 10:01:56;;;;;;;23.85;17.25;;;;;;;6.96;78.69;100596.47;5061931;28;20084;-62
2021/11/16 10:04:41;;;;;;;22.30;14.93;;;;;;;6.97;79.05;100599.94;5078709;28;20384;-62
2021/11/16 10:07:15;;;;;;;24.92;15.77;;;;;;;6.96;78.80;100599.03;5058198;28;20527;-62
2021/11/16 10:09:55;;;;;;;24.50;17.20;;;;;;;6.98;79.11;100596.53;5076725;28;20037;-63
2021/11/16 10:12:45;;;;;;;23.98;17.27;;;;;;;6.98;78.70;100596.53;5075331;28;20116;-62
2021/11/16 10:15:24;;;;;;;24.48;16.52;;;;;;;6.97;79.20;100595.66;5058412;28;20028;-63
2021/11/16 10:18:00;;;;;;;24.98;17.60;;;;;;;6.97;78.93;100595.66;5075378;28;20429;-62
2021/11/16 10:20:42;;;;;;;24.10;16.83;;;;;;;6.97;78.91;100598.22;5058432;28;20430;-62
2021/11/16 10:23:30;;;;;;;22.45;16.42;;;;;;;6.97;78.84;100593.06;5075080;28;20115;-62
2021/11/16 10:26:05;;;;;;;21.80;15.68;;;;;;;6.97;79.03;100587.03;5075683;28;20055;-63
2021/11/16 10:28:45;;;;;;;21.27;16.63;;;;;;;6.98;78.60;100589.66;5074768;28;20047;-63
2021/11/16 10:31:30;;;;;;;22.85;17.15;;;;;;;6.98;78.76;100575.91;5058605;28;20079;-63
2021/11/16 10:34:07;;;;;;;;;;;;;;;6.97;78.79;100579.31;5075414;28;20086;-63
2021/11/16 10:36:40;;;;;;;20.65;15.52;;;;;;;6.97;79.02;100585.34;5076320;28;19912;-63
2021/11/16 10:39:12;;;;;;;20.45;15.95;;;;;;;6.97;78.91;100581.88;5074581;28;20067;-63
2021/11/16 10:41:58;;;;;;;23.63;16.33;;;;;;;6.98;79.24;100586.22;5057772;28;20044;-62
2021/11/16 10:44:31;;;;;;;25.67;15.45;;;;;;;6.98;79.06;100581.06;5075956;28;20383;-63
2021/11/16 10:47:13;;;;;;;26.13;16.27;;;;;;;6.97;78.66;100572.44;5058167;28;20048;-63
2021/11/16 10:49:55;;;;;;;21.20;15.23;;;;;;;6.99;79.33;100575.09;5074658;28;20028;-63
2021/11/16 10:52:36;;;;;;;21.25;14.35;;;;;;;6.98;79.02;100566.47;5058282;28;20083;-63
2021/11/16 10:55:09;;;;;;;21.60;14.35;;;;;;;6.98;79.10;100568.19;5074511;28;20040;-63
2021/11/16 10:58:03;;;;;;;21.55;14.30;;;;;;;6.96;78.92;100562.97;5075652;28;20065;-64
2021/11/16 11:00:50;;;;;;;18.52;12.88;;;;;;;6.96;79.01;100562.97;5091238;28;20487;-63
2021/11/16 11:03:32;;;;;;;19.50;14.00;;;;;;;6.97;79.17;100559.56;5057902;28;20055;-63
2021/11/16 11:06:10;;;;;;;23.02;15.13;;;;;;;6.95;78.96;100558.63;5074535;28;20058;-62
2021/11/16 11:08:42;;;;;;;22.58;14.40;;;;;;;6.95;78.68;100548.31;5057342;28;20049;-63
2021/11/16 11:11:34;;;;;;;22.77;14.77;;;;;;;6.95;78.94;100555.19;5057653;28;20028;-63
2021/11/16 11:14:15;;;;;;;22.45;15.80;;;;;;;6.94;78.34;100551.69;5072359;28;20461;-63
2021/11/16 11:16:56;;;;;;;22.15;13.98;;;;;;;6.94;78.62;100549.13;5074564;28;20051;-64
2021/11/16 11:19:37;;;;;;;25.33;14.75;;;;;;;6.94;78.90;100541.41;5075363;28;20040;-63
2021/11/16 11:28:29;;;;;;;21.02;14.88;;;;;;;6.93;78.61;100538.78;5074382;28;20033;-63
2021/11/16 11:30:39;;;;;;;20.55;14.18;;;;;;;6.94;78.80;100535.38;5073138;28;20048;-63
2021/11/16 11:33:13;;;;;;;22.73;15.68;;;;;;;6.93;78.64;100536.19;5056826;28;20039;-63
2021/11/16 11:35:47;;;;;;;26.40;15.90;;;;;;;6.90;79.05;100536.06;5075062;28;20044;-62
2021/11/16 11:38:21;;;;;;;22.48;15.48;;;;;;;6.90;78.79;100538.66;5073806;28;20035;-64
2021/11/16 11:41:01;;;;;;;21.20;14.55;;;;;;;6.90;78.69;100539.53;5057010;28;20094;-62
2021/11/16 11:43:38;;;;;;;23.38;16.00;;;;;;;6.90;78.76;100539.53;5073799;28;20506;-63
2021/11/16 11:46:11;;;;;;;23.67;15.65;;;;;;;6.91;78.70;100533.56;5074026;28;20048;-63
2021/11/16 11:48:42;;;;;;;23.55;15.88;;;;;;;6.91;78.82;100536.16;5056872;28;20036;-62
2021/11/16 11:51:19;;;;;;;23.60;16.60;;;;;;;6.90;78.73;100526.66;5056616;28;20048;-62
2021/11/16 11:53:56;;;;;;;24.15;15.82;;;;;;;6.90;78.74;100523.19;5073323;28;20041;-62
2021/11/16 11:56:33;;;;;;;23.88;16.02;;;;;;;6.89;78.50;100522.31;5073158;28;20384;-62
2021/11/16 11:59:13;;;;;;;22.42;16.27;;;;;;;6.89;78.64;100524.00;5056697;28;20522;-62
2021/11/16 12:01:45;;;;;;;21.85;15.20;;;;;;;6.90;78.77;100524.09;5074340;28;20472;-62
2021/11/16 12:04:19;;;;;;;24.05;15.95;;;;;;;6.90;79.08;100520.63;5056941;28;20090;-62
2021/11/16 12:06:51;;;;;;;26.98;16.25;;;;;;;6.90;78.81;100520.63;5074922;28;20532;-62
2021/11/16 12:09:24;;;;;;;22.92;15.15;;;;;;;6.89;78.67;100517.16;5094438;28;20043;-63
2021/11/16 12:11:58;;;;;;;26.77;18.38;;;;;;;6.88;78.61;100515.41;5094450;28;20036;-63
2021/11/16 12:14:39;;;;;;;;;;;;;;;6.89;78.31;100522.31;5076814;28;20479;-63
2021/11/16 12:17:19;;;;;;;25.48;15.88;;;;;;;6.88;78.58;100511.94;5076719;28;19912;-63
2021/11/16 12:19:59;;;;;;;26.80;16.27;;;;;;;6.88;79.06;100511.94;5059996;28;20047;-63
2021/11/16 12:22:40;;;;;;;25.05;16.33;;;;;;;6.89;78.78;100518.84;5094567;28;20047;-63
2021/11/16 12:25:24;;;;;;;26.13;16.55;;;;;;;6.89;78.72;100519.75;5059327;28;20418;-62
2021/11/16 12:28:01;;;;;;;25.83;15.00;;;;;;;6.89;78.88;100512.03;5076433;28;20035;-62